createdAt,value
2023-05-10T00:01:33.919Z,38.40
2023-05-10T00:04:02.994Z,38.84
2023-05-10T00:06:32.449Z,38.34
2023-05-10T00:09:01.471Z,38.29
2023-05-10T00:11:30.443Z,38.34
2023-05-10T00:13:59.447Z,38.42
2023-05-10T00:16:28.493Z,38.36
2023-05-10T00:18:57.523Z,38.84
2023-05-10T00:21:26.460Z,38.47
2023-05-10T00:23:55.409Z,38.78
2023-05-10T00:26:24.393Z,38.61
2023-05-10T00:28:54.269Z,38.71
2023-05-10T00:31:23.417Z,38.47
2023-05-10T00:33:52.830Z,38.59
2023-05-10T00:36:28.153Z,38.64
2023-05-10T00:39:02.662Z,38.43
2023-05-10T00:41:31.950Z,38.62
2023-05-10T00:44:06.732Z,38.23
2023-05-10T00:46:59.902Z,38.19
2023-05-10T00:49:29.364Z,38.47
2023-05-10T00:52:00.247Z,38.28
2023-05-10T00:54:29.265Z,38.38
2023-05-10T00:56:59.518Z,38.23
2023-05-10T00:59:28.562Z,38.33
2023-05-10T01:01:57.548Z,38.00
2023-05-10T01:04:32.714Z,37.95
2023-05-10T01:07:02.070Z,38.04
2023-05-10T01:09:31.558Z,37.88
2023-05-10T01:12:00.623Z,37.83
2023-05-10T01:14:29.829Z,37.89
2023-05-10T01:16:58.838Z,37.45
2023-05-10T01:19:31.781Z,37.63
2023-05-10T01:22:09.942Z,37.83
2023-05-10T01:24:57.066Z,37.81
2023-05-10T01:27:44.046Z,37.49
2023-05-10T01:30:31.033Z,37.84
2023-05-10T01:33:11.105Z,38.03
2023-05-10T01:35:56.036Z,38.12
2023-05-10T01:38:33.019Z,37.86
2023-05-10T01:41:20.209Z,37.87
2023-05-10T01:44:09.196Z,38.10
2023-05-10T01:46:41.765Z,37.27
2023-05-10T01:49:24.917Z,37.50
2023-05-10T01:51:54.459Z,37.59
2023-05-10T01:54:23.620Z,37.92
2023-05-10T01:56:56.077Z,38.13
2023-05-10T01:59:25.224Z,37.72
2023-05-10T02:01:54.199Z,37.45
2023-05-10T02:04:23.203Z,37.29
2023-05-10T02:06:52.196Z,36.87
2023-05-10T02:09:21.255Z,36.82
2023-05-10T02:11:50.919Z,36.60
2023-05-10T02:14:19.944Z,36.67
2023-05-10T02:16:49.000Z,36.30
2023-05-10T02:19:18.050Z,36.37
2023-05-10T02:21:47.132Z,36.20
2023-05-10T02:24:16.546Z,36.04
2023-05-10T02:26:45.647Z,35.94
2023-05-10T02:29:14.869Z,35.99
2023-05-10T02:31:46.000Z,35.88
2023-05-10T02:34:15.048Z,35.85
2023-05-10T02:36:46.820Z,36.09
2023-05-10T02:39:16.154Z,35.83
2023-05-10T02:41:45.116Z,35.77
2023-05-10T02:44:14.115Z,35.60
2023-05-10T02:46:43.162Z,35.88
2023-05-10T02:49:12.169Z,35.80
2023-05-10T02:51:43.724Z,35.75
2023-05-10T02:54:21.469Z,35.77
2023-05-10T02:56:50.773Z,36.05
2023-05-10T02:59:19.759Z,36.04
2023-05-10T03:01:48.825Z,35.91
2023-05-10T03:04:18.085Z,35.92
2023-05-10T03:06:47.194Z,35.75
2023-05-10T03:09:17.970Z,35.92
2023-05-10T03:11:57.927Z,36.06
2023-05-10T03:14:33.414Z,36.07
2023-05-10T03:17:04.109Z,36.14
2023-05-10T03:19:40.114Z,35.92
2023-05-10T03:22:10.885Z,35.92
2023-05-10T03:24:39.881Z,35.98
2023-05-10T03:27:09.065Z,35.71
2023-05-10T03:29:39.187Z,35.86
2023-05-10T03:32:08.122Z,36.13
2023-05-10T03:34:37.174Z,35.87
2023-05-10T03:37:06.143Z,35.96
2023-05-10T03:39:35.149Z,36.07
2023-05-10T03:42:04.126Z,36.07
2023-05-10T03:44:33.624Z,35.87
2023-05-10T03:47:02.819Z,35.83
2023-05-10T03:49:32.381Z,35.88
2023-05-10T03:52:04.452Z,35.77
2023-05-10T03:54:44.568Z,35.77
2023-05-10T03:57:13.534Z,35.63
2023-05-10T03:59:42.534Z,35.68
2023-05-10T04:02:12.126Z,35.64
2023-05-10T04:04:41.157Z,35.33
2023-05-10T04:07:10.294Z,35.50
2023-05-10T04:09:39.279Z,35.58
2023-05-10T04:12:10.180Z,36.13
2023-05-10T04:14:39.957Z,35.53
2023-05-10T04:19:45.482Z,35.66
2023-05-10T04:22:14.476Z,35.67
2023-05-10T04:24:43.422Z,35.72
2023-05-10T04:27:13.939Z,35.74
2023-05-10T04:29:42.872Z,35.71
2023-05-10T04:32:12.640Z,35.67
2023-05-10T04:34:41.617Z,35.53
2023-05-10T04:37:10.570Z,34.84
2023-05-10T04:39:40.982Z,35.03
2023-05-10T04:42:11.379Z,33.90
2023-05-10T04:44:40.412Z,31.71
2023-05-10T04:47:11.261Z,31.95
2023-05-10T04:49:41.620Z,30.96
2023-05-10T04:52:10.570Z,30.38
2023-05-10T04:54:39.561Z,28.85
2023-05-10T04:57:08.552Z,29.29
2023-05-10T04:59:39.176Z,28.38
2023-05-10T05:02:08.225Z,27.63
2023-05-10T05:04:37.258Z,27.56
2023-05-10T05:07:06.209Z,27.48
2023-05-10T05:09:35.180Z,27.11
2023-05-10T05:12:04.153Z,26.78
2023-05-10T05:14:33.160Z,26.50
2023-05-10T05:17:02.334Z,26.53
2023-05-10T05:19:31.375Z,26.26
2023-05-10T05:22:00.361Z,26.62
2023-05-10T05:24:29.315Z,26.60
2023-05-10T05:26:58.509Z,26.63
2023-05-10T05:29:27.458Z,26.76
2023-05-10T05:31:56.627Z,26.67
2023-05-10T05:34:25.742Z,27.05
2023-05-10T05:36:54.707Z,27.09
2023-05-10T05:39:23.813Z,27.07
2023-05-10T05:41:52.859Z,27.10
2023-05-10T05:44:21.899Z,27.23
2023-05-10T05:46:50.853Z,26.81
2023-05-10T05:49:19.858Z,26.53
2023-05-10T05:51:48.852Z,27.10
2023-05-10T05:54:17.822Z,27.01
2023-05-10T05:56:46.890Z,26.64
2023-05-10T05:59:15.850Z,26.73
2023-05-10T06:01:44.861Z,26.50
2023-05-10T06:04:13.959Z,26.47
2023-05-10T06:06:43.012Z,25.77
2023-05-10T06:09:12.219Z,25.99
2023-05-10T06:11:41.256Z,26.50
2023-05-10T06:14:10.444Z,25.90
2023-05-10T06:16:39.479Z,25.91
2023-05-10T06:19:08.485Z,26.15
2023-05-10T06:21:37.470Z,26.52
2023-05-10T06:24:07.112Z,25.73
2023-05-10T06:26:36.301Z,26.94
2023-05-10T06:29:05.211Z,27.00
2023-05-10T06:31:34.230Z,26.25
2023-05-10T06:34:03.263Z,26.20
2023-05-10T06:36:32.245Z,26.33
2023-05-10T06:39:01.156Z,26.06
2023-05-10T06:41:30.164Z,25.66
2023-05-10T06:43:59.078Z,26.16
2023-05-10T06:46:28.364Z,26.26
2023-05-10T06:48:57.334Z,26.32
2023-05-10T06:51:26.307Z,26.32
2023-05-10T06:53:55.408Z,26.25
2023-05-10T06:56:24.390Z,26.59
2023-05-10T06:58:53.552Z,26.88
2023-05-10T07:01:22.700Z,26.83
2023-05-10T07:03:51.977Z,27.15
2023-05-10T07:06:32.181Z,27.76
2023-05-10T07:09:01.746Z,27.73
2023-05-10T07:11:30.832Z,27.41
2023-05-10T07:13:59.785Z,27.86
2023-05-10T07:16:28.855Z,28.09
2023-05-10T07:18:57.886Z,27.67
2023-05-10T07:21:26.909Z,28.05
2023-05-10T07:23:55.897Z,28.36
2023-05-10T07:26:24.931Z,28.12
2023-05-10T07:28:53.915Z,28.30
2023-05-10T07:31:22.854Z,28.39
2023-05-10T07:33:51.837Z,28.80
2023-05-10T07:36:20.819Z,28.48
2023-05-10T07:38:49.856Z,28.53
2023-05-10T07:41:18.890Z,28.69
2023-05-10T07:43:48.048Z,29.05
2023-05-10T07:46:17.076Z,29.00
2023-05-10T07:48:46.067Z,29.12
2023-05-10T07:51:18.051Z,29.80
2023-05-10T07:53:47.018Z,29.92
2023-05-10T07:56:31.925Z,29.67
2023-05-10T07:59:05.116Z,29.72
2023-05-10T08:01:35.017Z,29.93
2023-05-10T08:04:04.586Z,29.81
2023-05-10T08:06:33.564Z,30.08
2023-05-10T08:09:02.594Z,30.15
2023-05-10T08:11:32.814Z,30.27
2023-05-10T08:14:02.823Z,30.33
2023-05-10T08:16:31.956Z,30.43
2023-05-10T08:19:01.037Z,30.57
2023-05-10T08:21:30.105Z,30.90
2023-05-10T08:23:59.086Z,31.12
2023-05-10T08:26:28.468Z,31.42
2023-05-10T08:28:57.475Z,31.59
2023-05-10T08:31:26.489Z,31.59
2023-05-10T08:33:55.503Z,32.07
2023-05-10T08:36:26.662Z,31.98
2023-05-10T08:38:55.910Z,32.30
2023-05-10T08:41:26.309Z,32.34
2023-05-10T08:43:58.251Z,32.62
2023-05-10T08:46:29.095Z,32.56
2023-05-10T08:48:58.424Z,32.69
2023-05-10T08:51:30.489Z,33.14
2023-05-10T08:53:59.422Z,33.15
2023-05-10T08:56:28.394Z,33.04
2023-05-10T08:58:57.637Z,33.35
2023-05-10T09:01:26.616Z,33.48
2023-05-10T09:03:55.605Z,33.49
2023-05-10T09:06:24.898Z,33.04
2023-05-10T09:08:53.930Z,33.12
2023-05-10T09:11:23.041Z,33.03
2023-05-10T09:13:52.036Z,33.11
2023-05-10T09:16:22.482Z,33.06
2023-05-10T09:18:52.120Z,33.16
2023-05-10T09:21:22.719Z,33.11
2023-05-10T09:23:52.592Z,33.09
2023-05-10T09:26:25.137Z,33.28
2023-05-10T09:29:01.340Z,33.17
2023-05-10T09:31:50.366Z,33.13
2023-05-10T09:34:20.552Z,33.18
2023-05-10T09:36:56.204Z,33.30
2023-05-10T09:39:34.753Z,33.33
2023-05-10T09:42:12.815Z,33.26
2023-05-10T09:44:43.441Z,33.51
2023-05-10T09:47:12.409Z,33.51
2023-05-10T09:49:41.303Z,33.48
2023-05-10T09:52:10.544Z,33.79
2023-05-10T09:54:39.540Z,33.84
2023-05-10T09:57:08.506Z,33.81
2023-05-10T09:59:38.048Z,34.04
2023-05-10T10:02:07.039Z,33.79
2023-05-10T10:04:36.108Z,33.92
2023-05-10T10:07:05.939Z,34.22
2023-05-10T10:09:35.323Z,34.38
2023-05-10T10:12:07.535Z,34.25
2023-05-10T10:14:36.500Z,34.58
2023-05-10T10:17:08.722Z,34.51
2023-05-10T10:19:38.486Z,34.36
2023-05-10T10:22:08.141Z,34.58
2023-05-10T10:24:37.184Z,34.69
2023-05-10T10:27:18.656Z,34.67
2023-05-10T10:29:53.280Z,34.84
2023-05-10T10:32:29.226Z,34.95
2023-05-10T10:34:58.729Z,35.14
2023-05-10T10:37:43.911Z,35.17
2023-05-10T10:40:34.694Z,35.32
2023-05-10T10:43:22.340Z,35.41
2023-05-10T10:46:11.302Z,35.53
2023-05-10T10:48:40.281Z,35.74
2023-05-10T10:51:10.883Z,35.71
2023-05-10T10:53:43.930Z,35.65
2023-05-10T10:56:14.147Z,36.00
2023-05-10T10:58:43.187Z,35.96
2023-05-10T11:01:15.638Z,35.83
2023-05-10T11:03:45.043Z,36.13
2023-05-10T11:06:14.303Z,36.15
2023-05-10T11:08:46.677Z,36.19
2023-05-10T11:11:17.376Z,36.35
2023-05-10T11:13:50.002Z,36.26
2023-05-10T11:16:24.272Z,36.41
2023-05-10T11:18:57.226Z,36.36
2023-05-10T11:21:26.291Z,36.45
2023-05-10T11:23:58.726Z,36.26
2023-05-10T11:26:28.583Z,36.40
2023-05-10T11:29:02.000Z,36.24
2023-05-10T11:31:31.252Z,36.40
2023-05-10T11:34:00.922Z,36.34
2023-05-10T11:36:30.882Z,36.63
2023-05-10T11:38:59.927Z,36.58
2023-05-10T11:41:30.704Z,36.60
2023-05-10T11:44:00.120Z,36.78
2023-05-10T11:46:30.884Z,37.04
2023-05-10T11:49:09.472Z,36.92
2023-05-10T11:51:38.885Z,36.95
2023-05-10T11:54:14.965Z,36.86
2023-05-10T11:56:44.105Z,36.85
2023-05-10T11:59:13.067Z,36.88
2023-05-10T12:01:42.545Z,37.02
2023-05-10T12:04:11.901Z,36.86
2023-05-10T12:06:43.383Z,36.94
2023-05-10T12:09:12.869Z,36.90
2023-05-10T12:11:45.308Z,36.85
2023-05-10T12:14:14.429Z,36.87
2023-05-10T12:16:44.003Z,36.96
2023-05-10T12:19:13.309Z,36.77
2023-05-10T12:21:43.992Z,36.85
2023-05-10T12:24:13.090Z,36.83
2023-05-10T12:29:27.393Z,36.68
2023-05-10T12:32:00.257Z,36.75
2023-05-10T12:34:33.241Z,36.81
2023-05-10T12:37:02.383Z,36.73
2023-05-10T12:39:47.277Z,36.90
2023-05-10T12:42:16.236Z,36.73
2023-05-10T12:44:45.165Z,36.94
2023-05-10T12:47:14.132Z,36.81
2023-05-10T12:49:43.065Z,36.69
2023-05-10T12:52:12.095Z,36.76
2023-05-10T12:54:40.987Z,36.77
2023-05-10T12:59:43.683Z,36.81
2023-05-10T13:02:12.804Z,36.92
2023-05-10T13:04:42.299Z,37.12
2023-05-10T13:07:11.481Z,36.97
2023-05-10T13:09:40.525Z,36.81
2023-05-10T13:12:10.101Z,36.89
2023-05-10T13:14:39.407Z,37.06
2023-05-10T13:17:08.482Z,37.12
2023-05-10T13:19:37.581Z,37.31
2023-05-10T13:22:06.578Z,37.13
2023-05-10T13:24:35.640Z,37.17
2023-05-10T13:27:04.961Z,37.19
2023-05-10T13:29:34.434Z,37.06
2023-05-10T13:32:03.465Z,37.38
2023-05-10T13:34:32.599Z,37.45
2023-05-10T13:37:01.541Z,37.25
2023-05-10T13:39:33.343Z,37.20
2023-05-10T13:42:02.318Z,37.43
2023-05-10T13:44:31.227Z,37.53
2023-05-10T13:47:00.164Z,37.43
2023-05-10T13:49:29.708Z,37.56
2023-05-10T13:51:58.725Z,37.69
2023-05-10T13:54:27.803Z,37.54
2023-05-10T13:56:56.798Z,37.52
2023-05-10T13:59:25.734Z,37.65
2023-05-10T14:01:54.992Z,37.49
2023-05-10T14:04:23.961Z,37.67
2023-05-10T14:06:53.204Z,37.63
2023-05-10T14:09:22.574Z,37.34
2023-05-10T14:11:51.618Z,37.46
2023-05-10T14:14:20.553Z,37.49
2023-05-10T14:16:49.695Z,37.54
2023-05-10T14:19:18.723Z,37.74
2023-05-10T14:21:47.763Z,37.65
2023-05-10T14:24:16.656Z,37.90
2023-05-10T14:26:45.549Z,37.80
2023-05-10T14:29:14.438Z,37.90
2023-05-10T14:31:43.436Z,37.73
2023-05-10T14:34:12.550Z,37.63
2023-05-10T14:36:42.014Z,37.65
2023-05-10T14:39:12.573Z,37.70
2023-05-10T14:41:44.009Z,37.55
2023-05-10T14:44:13.148Z,37.67
2023-05-10T14:46:42.598Z,37.64
2023-05-10T14:49:11.502Z,37.67
2023-05-10T14:51:40.495Z,37.70
2023-05-10T14:54:09.452Z,37.61
2023-05-10T14:56:39.762Z,37.75
2023-05-10T14:59:08.700Z,37.66
2023-05-10T15:01:39.915Z,37.58
2023-05-10T15:04:09.294Z,37.59
2023-05-10T15:06:39.342Z,37.60
2023-05-10T15:09:08.720Z,37.79
2023-05-10T15:11:37.651Z,37.77
2023-05-10T15:14:06.691Z,37.78
2023-05-10T15:16:36.285Z,37.86
2023-05-10T15:19:05.473Z,37.97
2023-05-10T15:21:41.006Z,37.82
2023-05-10T15:24:10.081Z,37.82
2023-05-10T15:26:39.075Z,37.90
2023-05-10T15:29:07.988Z,37.91
2023-05-10T15:31:39.861Z,37.99
2023-05-10T15:34:08.855Z,37.93
2023-05-10T15:36:37.758Z,37.90
2023-05-10T15:39:06.747Z,37.91
2023-05-10T15:41:35.682Z,37.85
2023-05-10T15:44:04.754Z,37.91
2023-05-10T15:46:33.718Z,37.97
2023-05-10T15:49:02.660Z,37.99
2023-05-10T15:51:31.690Z,38.12
2023-05-10T15:54:07.332Z,37.86
2023-05-10T15:56:37.235Z,37.89
2023-05-10T15:59:07.609Z,38.15
2023-05-10T16:01:36.637Z,37.73
2023-05-10T16:04:05.639Z,38.01
2023-05-10T16:06:35.737Z,37.75
2023-05-10T16:09:04.729Z,37.91
2023-05-10T16:11:33.725Z,37.85
2023-05-10T16:14:02.809Z,37.99
2023-05-10T16:16:31.837Z,38.18
2023-05-10T16:19:02.890Z,37.95
2023-05-10T16:21:34.932Z,37.85
2023-05-10T16:24:05.072Z,38.01
2023-05-10T16:26:33.975Z,38.11
2023-05-10T16:29:02.923Z,38.23
2023-05-10T16:31:32.058Z,38.12
2023-05-10T16:34:01.044Z,38.16
2023-05-10T16:36:30.240Z,38.12
2023-05-10T16:38:59.201Z,38.01
2023-05-10T16:41:28.305Z,38.08
2023-05-10T16:43:59.033Z,38.28
2023-05-10T16:46:28.494Z,38.02
2023-05-10T16:48:57.470Z,38.14
2023-05-10T16:51:26.428Z,38.23
2023-05-10T16:53:55.541Z,37.97
2023-05-10T16:56:24.917Z,38.17
2023-05-10T16:58:53.864Z,38.12
2023-05-10T17:01:24.348Z,38.11
2023-05-10T17:03:54.840Z,38.42
2023-05-10T17:06:23.830Z,38.38
2023-05-10T17:08:53.272Z,38.43
2023-05-10T17:11:23.339Z,38.22
2023-05-10T17:13:53.975Z,38.32
2023-05-10T17:16:22.930Z,38.42
2023-05-10T17:18:52.129Z,38.55
2023-05-10T17:21:21.095Z,38.37
2023-05-10T17:23:50.107Z,38.56
2023-05-10T17:26:19.102Z,38.45
2023-05-10T17:28:48.804Z,38.57
2023-05-10T17:31:17.950Z,38.58
2023-05-10T17:33:46.899Z,38.56
2023-05-10T17:36:15.870Z,38.46
2023-05-10T17:38:45.012Z,38.57
2023-05-10T17:41:13.972Z,38.55
2023-05-10T17:43:42.996Z,38.46
2023-05-10T17:46:12.073Z,38.49
2023-05-10T17:48:41.271Z,38.42
2023-05-10T17:51:10.372Z,38.61
2023-05-10T17:53:39.773Z,38.51
2023-05-10T17:56:08.993Z,38.84
2023-05-10T17:58:39.774Z,38.60
2023-05-10T18:01:08.817Z,38.74
2023-05-10T18:03:37.891Z,38.70
2023-05-10T18:06:06.988Z,38.59
2023-05-10T18:08:36.012Z,38.83
2023-05-10T18:11:05.009Z,39.02
2023-05-10T18:13:33.970Z,38.94
2023-05-10T18:16:03.006Z,39.03
2023-05-10T18:18:31.970Z,38.94
2023-05-10T18:21:01.130Z,38.99
2023-05-10T18:23:30.144Z,39.00
2023-05-10T18:25:59.601Z,39.12
2023-05-10T18:28:28.578Z,38.94
2023-05-10T18:30:57.557Z,39.13
2023-05-10T18:33:26.708Z,39.05
2023-05-10T18:35:55.758Z,39.13
2023-05-10T18:38:24.838Z,39.16
2023-05-10T18:40:53.875Z,39.01
2023-05-10T18:43:22.893Z,39.12
2023-05-10T18:45:52.794Z,39.08
2023-05-10T18:48:21.818Z,39.06
2023-05-10T18:50:51.473Z,39.02
2023-05-10T18:53:20.569Z,39.12
2023-05-10T18:55:49.569Z,39.29
2023-05-10T18:58:18.570Z,39.26
2023-05-10T19:00:47.542Z,39.15
2023-05-10T19:03:16.482Z,39.14
2023-05-10T19:05:45.425Z,39.09
2023-05-10T19:08:14.425Z,39.20
2023-05-10T19:10:43.399Z,39.39
2023-05-10T19:13:12.439Z,39.17
2023-05-10T19:15:41.444Z,39.26
2023-05-10T19:18:10.818Z,39.28
2023-05-10T19:20:41.661Z,39.15
2023-05-10T19:23:11.372Z,39.32
2023-05-10T19:25:40.835Z,39.27
2023-05-10T19:28:11.494Z,39.35
2023-05-10T19:30:40.405Z,39.25
2023-05-10T19:33:10.742Z,39.51
2023-05-10T19:35:40.748Z,39.31
2023-05-10T19:40:38.496Z,39.60
2023-05-10T19:43:07.505Z,39.33
2023-05-10T19:45:38.703Z,39.13
2023-05-10T19:48:07.924Z,39.43
2023-05-10T19:50:37.002Z,39.65
2023-05-10T19:53:05.988Z,39.52
2023-05-10T19:55:35.313Z,39.45
2023-05-10T19:58:05.179Z,39.68
2023-05-10T20:00:34.126Z,39.42
2023-05-10T20:03:03.447Z,39.34
2023-05-10T20:05:32.426Z,39.69
2023-05-10T20:08:01.390Z,39.55
2023-05-10T20:10:30.367Z,39.49
2023-05-10T20:13:00.237Z,39.72
2023-05-10T20:15:30.833Z,39.72
2023-05-10T20:17:59.966Z,39.65
2023-05-10T20:20:28.912Z,39.71
2023-05-10T20:22:57.887Z,39.62
2023-05-10T20:25:27.073Z,39.66
2023-05-10T20:27:56.216Z,39.64
2023-05-10T20:30:25.142Z,39.70
2023-05-10T20:32:54.409Z,39.62
2023-05-10T20:35:23.536Z,39.29
2023-05-10T20:37:52.509Z,39.67
2023-05-10T20:40:21.503Z,39.76
2023-05-10T20:42:51.195Z,39.49
2023-05-10T20:45:20.191Z,39.76
2023-05-10T20:47:49.190Z,39.91
2023-05-10T20:50:18.480Z,39.82
2023-05-10T20:52:47.578Z,39.73
2023-05-10T20:55:16.565Z,39.71
2023-05-10T20:57:45.637Z,39.83
2023-05-10T21:00:15.688Z,39.98
2023-05-10T21:02:46.633Z,40.25
2023-05-10T21:05:15.680Z,40.11
2023-05-10T21:07:44.781Z,40.47
2023-05-10T21:10:14.238Z,40.64
2023-05-10T21:12:43.264Z,40.62
2023-05-10T21:15:12.427Z,40.79
2023-05-10T21:17:41.450Z,40.92
2023-05-10T21:20:10.757Z,41.05
2023-05-10T21:22:39.728Z,41.19
2023-05-10T21:25:09.170Z,40.93
2023-05-10T21:27:38.426Z,40.66
2023-05-10T21:30:08.561Z,40.62
2023-05-10T21:32:38.370Z,40.73
2023-05-10T21:35:07.877Z,40.50
2023-05-10T21:37:36.838Z,40.87
2023-05-10T21:40:23.857Z,40.76
2023-05-10T21:42:53.173Z,40.32
2023-05-10T21:45:22.153Z,40.85
2023-05-10T21:47:51.346Z,40.77
2023-05-10T21:50:20.561Z,40.13
2023-05-10T21:52:49.716Z,39.66
2023-05-10T21:55:18.745Z,39.73
2023-05-10T21:57:48.040Z,40.01
2023-05-10T22:00:18.036Z,40.14
2023-05-10T22:02:48.089Z,40.29
2023-05-10T22:05:17.192Z,39.91
2023-05-10T22:07:46.281Z,39.74
2023-05-10T22:10:15.504Z,39.53
2023-05-10T22:12:44.659Z,39.36
2023-05-10T22:15:13.702Z,39.44
2023-05-10T22:17:42.743Z,39.35
2023-05-10T22:22:40.194Z,39.14
2023-05-10T22:25:09.364Z,38.91
2023-05-10T22:27:38.393Z,39.15
2023-05-10T22:30:07.979Z,36.68
2023-05-10T22:32:36.978Z,37.74
2023-05-10T22:35:06.024Z,37.89
2023-05-10T22:37:34.972Z,38.38
2023-05-10T22:40:04.004Z,38.60
2023-05-10T22:42:32.997Z,38.56
2023-05-10T22:45:02.038Z,38.04
2023-05-10T22:47:31.063Z,37.45
2023-05-10T22:50:00.250Z,38.06
2023-05-10T22:52:29.371Z,37.88
2023-05-10T22:54:58.616Z,38.31
2023-05-10T23:39:53.185Z,38.41
2023-05-10T23:40:34.106Z,38.21
2023-05-10T23:50:00.164Z,38.24
2023-05-10T23:52:37.798Z,37.64
2023-05-10T23:58:16.357Z,37.68
